createdAt,value
2019-06-15T00:01:45.825Z,99.90
2019-06-15T00:04:14.379Z,99.90
2019-06-15T00:06:42.954Z,99.90
2019-06-15T00:09:11.557Z,99.90
2019-06-15T00:11:40.191Z,99.90
2019-06-15T00:14:08.867Z,99.90
2019-06-15T00:16:37.508Z,99.90
2019-06-15T00:19:06.110Z,99.90
2019-06-15T00:21:34.741Z,99.90
2019-06-15T00:24:03.283Z,99.90
2019-06-15T00:26:31.840Z,99.90
2019-06-15T00:29:00.465Z,99.90
2019-06-15T00:31:29.033Z,99.90
2019-06-15T00:33:57.572Z,99.90
2019-06-15T00:36:26.153Z,99.90
2019-06-15T00:38:54.675Z,99.90
2019-06-15T00:41:23.319Z,99.90
2019-06-15T00:43:51.864Z,99.90
2019-06-15T00:46:20.437Z,99.90
2019-06-15T00:48:48.968Z,99.90
2019-06-15T00:51:17.618Z,99.90
2019-06-15T00:53:46.157Z,99.90
2019-06-15T00:56:14.773Z,99.90
2019-06-15T00:58:43.477Z,99.90
2019-06-15T01:01:12.083Z,99.90
2019-06-15T01:03:40.651Z,99.90
2019-06-15T01:06:09.262Z,99.90
2019-06-15T01:08:37.830Z,99.90
2019-06-15T01:11:06.364Z,99.90
2019-06-15T01:13:35.000Z,99.90
2019-06-15T01:16:03.624Z,99.90
2019-06-15T01:18:32.261Z,99.90
2019-06-15T01:21:00.877Z,99.90
2019-06-15T01:23:29.443Z,99.90
2019-06-15T01:25:58.111Z,99.90
2019-06-15T01:28:26.682Z,99.90
2019-06-15T01:30:55.291Z,99.90
2019-06-15T01:33:23.841Z,99.90
2019-06-15T01:35:52.404Z,99.90
2019-06-15T01:38:21.004Z,99.90
2019-06-15T01:40:49.582Z,99.90
2019-06-15T01:43:18.136Z,99.90
2019-06-15T01:45:46.695Z,99.90
2019-06-15T01:48:15.251Z,99.90
2019-06-15T01:50:43.785Z,99.90
2019-06-15T01:53:12.353Z,99.90
2019-06-15T01:55:40.957Z,99.90
2019-06-15T01:58:09.575Z,99.90
2019-06-15T02:00:38.360Z,99.90
2019-06-15T02:03:06.983Z,99.90
2019-06-15T02:05:35.660Z,99.90
2019-06-15T02:08:04.371Z,99.90
2019-06-15T02:10:33.759Z,99.90
2019-06-15T02:13:03.144Z,99.90
2019-06-15T02:15:31.777Z,99.90
2019-06-15T02:18:00.391Z,99.90
2019-06-15T02:20:29.036Z,99.90
2019-06-15T02:22:57.591Z,99.90
2019-06-15T02:25:35.772Z,99.90
2019-06-15T02:27:59.486Z,99.90
2019-06-15T02:30:30.602Z,99.90
2019-06-15T02:32:59.279Z,99.90
2019-06-15T02:35:27.948Z,99.90
2019-06-15T02:37:56.647Z,99.90
2019-06-15T02:40:25.322Z,99.90
2019-06-15T02:42:53.889Z,99.90
2019-06-15T02:45:22.760Z,99.90
2019-06-15T02:47:51.407Z,99.90
2019-06-15T02:50:20.977Z,99.90
2019-06-15T02:52:49.674Z,99.90
2019-06-15T02:55:19.161Z,99.90
2019-06-15T02:57:47.827Z,99.90
2019-06-15T03:00:19.409Z,99.90
2019-06-15T03:02:48.019Z,99.90
2019-06-15T03:05:16.643Z,99.90
2019-06-15T03:07:45.317Z,99.90
2019-06-15T03:10:14.021Z,99.90
2019-06-15T03:12:42.628Z,99.90
2019-06-15T03:15:11.499Z,99.90
2019-06-15T03:17:40.135Z,99.90
2019-06-15T03:20:10.118Z,99.90
2019-06-15T03:22:38.685Z,99.90
2019-06-15T03:25:12.019Z,99.90
2019-06-15T03:27:40.581Z,99.90
2019-06-15T03:30:10.667Z,99.90
2019-06-15T03:32:39.280Z,99.90
2019-06-15T03:35:09.259Z,99.90
2019-06-15T03:37:37.892Z,99.90
2019-06-15T03:40:07.977Z,99.90
2019-06-15T03:42:36.535Z,99.90
2019-06-15T03:45:09.283Z,99.90
2019-06-15T03:47:37.901Z,99.90
2019-06-15T03:50:07.720Z,99.90
2019-06-15T03:52:36.274Z,99.90
2019-06-15T03:55:05.567Z,99.90
2019-06-15T03:57:34.240Z,99.90
2019-06-15T04:00:02.867Z,99.90
2019-06-15T04:02:31.423Z,99.90
2019-06-15T04:04:59.972Z,99.90
2019-06-15T04:07:28.534Z,99.90
2019-06-15T04:09:57.082Z,99.90
2019-06-15T04:12:25.628Z,99.90
2019-06-15T04:14:54.167Z,99.90
2019-06-15T04:17:22.780Z,99.90
2019-06-15T04:19:51.607Z,99.90
2019-06-15T04:22:20.155Z,99.90
2019-06-15T04:24:48.720Z,99.90
2019-06-15T04:27:17.268Z,99.90
2019-06-15T04:29:45.827Z,99.90
2019-06-15T04:32:14.376Z,99.90
2019-06-15T04:34:42.940Z,99.90
2019-06-15T04:37:11.488Z,99.90
2019-06-15T04:39:40.025Z,99.90
2019-06-15T04:42:08.571Z,99.90
2019-06-15T04:44:37.132Z,99.90
2019-06-15T04:47:05.689Z,99.90
2019-06-15T04:49:34.225Z,99.90
2019-06-15T04:52:02.799Z,99.90
2019-06-15T04:54:31.340Z,99.90
2019-06-15T04:56:59.909Z,99.90
2019-06-15T04:59:28.473Z,99.90
2019-06-15T05:01:57.028Z,99.90
2019-06-15T05:04:25.672Z,99.90
2019-06-15T05:06:54.205Z,99.90
2019-06-15T05:09:22.848Z,99.90
2019-06-15T05:11:51.391Z,99.90
2019-06-15T05:14:19.951Z,99.90
2019-06-15T05:16:48.492Z,99.90
2019-06-15T05:19:17.060Z,99.90
2019-06-15T05:21:45.600Z,99.90
2019-06-15T05:24:14.141Z,99.90
2019-06-15T05:26:42.688Z,99.90
2019-06-15T05:29:11.244Z,99.90
2019-06-15T05:31:39.939Z,99.90
2019-06-15T05:34:08.560Z,99.90
2019-06-15T05:36:37.192Z,99.90
2019-06-15T05:39:07.072Z,99.90
2019-06-15T05:41:36.768Z,99.90
2019-06-15T05:44:05.869Z,99.90
2019-06-15T05:46:34.410Z,99.90
2019-06-15T05:49:02.986Z,99.90
2019-06-15T05:51:31.518Z,99.90
2019-06-15T05:54:00.229Z,99.90
2019-06-15T05:56:28.838Z,99.90
2019-06-15T05:58:57.564Z,99.90
2019-06-15T06:01:26.104Z,99.90
2019-06-15T06:03:54.644Z,99.90
2019-06-15T06:06:23.214Z,99.90
2019-06-15T06:08:51.768Z,99.90
2019-06-15T06:11:20.398Z,99.90
2019-06-15T06:13:49.426Z,99.90
2019-06-15T06:16:18.024Z,99.90
2019-06-15T06:18:46.591Z,99.90
2019-06-15T06:21:15.236Z,99.90
2019-06-15T06:23:43.779Z,99.90
2019-06-15T06:26:12.322Z,99.90
2019-06-15T06:28:54.118Z,99.90
2019-06-15T06:31:11.048Z,99.90
2019-06-15T06:33:40.416Z,99.90
2019-06-15T06:36:09.050Z,99.90
2019-06-15T06:38:37.738Z,99.90
2019-06-15T06:41:07.059Z,99.90
2019-06-15T06:43:35.722Z,99.90
2019-06-15T06:46:04.403Z,99.90
2019-06-15T06:48:33.627Z,99.90
2019-06-15T06:51:02.858Z,99.90
2019-06-15T06:53:31.460Z,99.90
2019-06-15T06:56:00.008Z,99.90
2019-06-15T06:58:28.560Z,99.90
2019-06-15T07:00:57.623Z,99.90
2019-06-15T07:03:26.118Z,99.90
2019-06-15T07:05:54.756Z,99.90
2019-06-15T07:08:23.295Z,99.90
2019-06-15T07:10:51.845Z,99.90
2019-06-15T07:13:20.480Z,99.90
2019-06-15T07:15:49.019Z,99.90
2019-06-15T07:18:17.579Z,99.90
2019-06-15T07:20:46.255Z,99.90
2019-06-15T07:23:14.823Z,99.90
2019-06-15T07:25:43.357Z,99.90
2019-06-15T07:28:11.886Z,99.90
2019-06-15T07:30:40.454Z,99.90
2019-06-15T07:33:08.983Z,99.90
2019-06-15T07:35:37.545Z,99.90
2019-06-15T07:38:06.076Z,99.90
2019-06-15T07:40:34.659Z,99.90
2019-06-15T07:43:03.200Z,99.90
2019-06-15T07:45:31.843Z,99.90
2019-06-15T07:48:00.382Z,99.90
2019-06-15T07:50:28.918Z,99.90
2019-06-15T07:52:57.487Z,99.90
2019-06-15T07:55:26.022Z,99.90
2019-06-15T07:57:54.583Z,99.90
2019-06-15T08:00:24.953Z,99.90
2019-06-15T08:02:53.574Z,99.50
2019-06-15T08:05:22.221Z,99.90
2019-06-15T08:07:50.795Z,99.90
2019-06-15T08:10:19.460Z,97.80
2019-06-15T08:12:48.073Z,98.90
2019-06-15T08:15:16.832Z,98.90
2019-06-15T08:17:45.764Z,98.10
2019-06-15T08:20:15.152Z,98.10
2019-06-15T08:22:43.691Z,98.50
2019-06-15T08:25:12.799Z,97.40
2019-06-15T08:27:41.372Z,97.20
2019-06-15T08:30:10.916Z,96.90
2019-06-15T08:32:39.476Z,96.90
2019-06-15T08:35:08.175Z,97.00
2019-06-15T08:37:36.733Z,98.00
2019-06-15T08:40:07.903Z,97.30
2019-06-15T08:42:36.548Z,97.10
2019-06-15T08:45:08.455Z,96.80
2019-06-15T08:47:37.009Z,95.40
2019-06-15T08:50:06.992Z,95.00
2019-06-15T08:52:35.608Z,95.60
2019-06-15T08:55:05.613Z,95.00
2019-06-15T08:57:34.155Z,94.80
2019-06-15T09:00:04.458Z,95.60
2019-06-15T09:02:33.089Z,94.30
2019-06-15T09:05:01.719Z,94.10
2019-06-15T09:07:30.277Z,94.20
2019-06-15T09:09:58.823Z,95.00
2019-06-15T09:12:27.448Z,94.30
2019-06-15T09:14:55.995Z,95.50
2019-06-15T09:17:24.556Z,93.70
2019-06-15T09:19:53.098Z,93.90
2019-06-15T09:22:21.716Z,94.00
2019-06-15T09:24:50.246Z,93.90
2019-06-15T09:27:18.803Z,93.50
2019-06-15T09:29:48.056Z,92.50
2019-06-15T09:32:16.667Z,93.50
2019-06-15T09:34:45.283Z,94.10
2019-06-15T09:37:13.817Z,93.70
2019-06-15T09:39:42.427Z,94.40
2019-06-15T09:42:11.032Z,94.10
2019-06-15T09:44:39.586Z,94.00
2019-06-15T09:47:08.118Z,95.40
2019-06-15T09:49:36.700Z,94.90
2019-06-15T09:52:05.448Z,92.50
2019-06-15T09:54:34.018Z,92.70
2019-06-15T09:57:02.616Z,93.30
2019-06-15T09:59:31.243Z,94.10
2019-06-15T10:02:01.728Z,93.60
2019-06-15T10:04:30.341Z,91.70
2019-06-15T10:06:58.885Z,94.20
2019-06-15T10:09:27.432Z,94.20
2019-06-15T10:11:55.995Z,91.90
2019-06-15T10:14:24.536Z,91.50
2019-06-15T10:16:53.087Z,91.60
2019-06-15T10:19:21.623Z,91.70
2019-06-15T10:21:50.421Z,93.20
2019-06-15T10:24:19.225Z,91.20
2019-06-15T10:26:47.779Z,92.00
2019-06-15T10:29:16.392Z,92.70
2019-06-15T10:31:44.927Z,92.70
2019-06-15T10:34:13.497Z,90.90
2019-06-15T10:36:42.040Z,91.10
2019-06-15T10:39:10.576Z,90.60
2019-06-15T10:41:39.266Z,90.80
2019-06-15T10:44:07.945Z,88.70
2019-06-15T10:46:36.472Z,91.20
2019-06-15T10:49:05.112Z,86.00
2019-06-15T10:51:33.894Z,86.20
2019-06-15T10:54:02.510Z,87.70
2019-06-15T10:56:31.082Z,88.50
2019-06-15T10:58:59.694Z,89.40
2019-06-15T11:01:28.318Z,88.00
2019-06-15T11:03:56.914Z,90.20
2019-06-15T11:06:25.557Z,91.20
2019-06-15T11:08:54.671Z,85.10
2019-06-15T11:11:23.609Z,86.30
2019-06-15T11:13:52.504Z,90.10
2019-06-15T11:16:21.187Z,90.40
2019-06-15T11:18:50.691Z,88.80
2019-06-15T11:21:19.532Z,87.50
2019-06-15T11:23:48.153Z,87.40
2019-06-15T11:26:16.826Z,86.20
2019-06-15T11:28:45.555Z,88.40
2019-06-15T11:31:14.235Z,90.40
2019-06-15T11:33:42.867Z,90.60
2019-06-15T11:36:11.499Z,92.00
2019-06-15T11:38:40.030Z,88.30
2019-06-15T11:41:08.651Z,90.20
2019-06-15T11:43:37.107Z,87.80
2019-06-15T11:46:07.446Z,85.50
2019-06-15T11:48:36.326Z,84.60
2019-06-15T11:51:05.006Z,84.90
2019-06-15T11:53:33.610Z,82.60
2019-06-15T11:56:02.211Z,85.80
2019-06-15T11:58:32.018Z,84.20
2019-06-15T12:01:00.547Z,88.30
2019-06-15T12:03:29.170Z,86.60
2019-06-15T12:05:57.707Z,87.20
2019-06-15T12:08:26.265Z,83.80
2019-06-15T12:10:54.815Z,84.40
2019-06-15T12:13:23.449Z,88.30
2019-06-15T12:15:51.975Z,88.00
2019-06-15T12:18:20.620Z,84.50
2019-06-15T12:20:49.271Z,86.10
2019-06-15T12:23:17.946Z,85.40
2019-06-15T12:25:46.518Z,86.80
2019-06-15T12:28:15.050Z,83.20
2019-06-15T12:30:47.363Z,85.00
2019-06-15T12:33:14.076Z,84.90
2019-06-15T12:35:42.605Z,83.80
2019-06-15T12:38:11.156Z,82.60
2019-06-15T12:40:39.692Z,83.20
2019-06-15T12:43:08.244Z,82.30
2019-06-15T12:45:36.850Z,84.10
2019-06-15T12:48:05.541Z,86.00
2019-06-15T12:50:34.159Z,84.00
2019-06-15T12:53:02.712Z,87.70
2019-06-15T12:55:31.278Z,87.20
2019-06-15T12:57:59.794Z,85.50
2019-06-15T13:00:34.273Z,86.50
2019-06-15T13:03:02.875Z,85.60
2019-06-15T13:05:31.433Z,85.10
2019-06-15T13:07:59.961Z,83.50
2019-06-15T13:10:28.718Z,84.10
2019-06-15T13:12:57.260Z,86.20
2019-06-15T13:15:25.934Z,86.70
2019-06-15T13:17:54.483Z,86.20
2019-06-15T13:20:23.383Z,86.80
2019-06-15T13:22:51.927Z,85.50
2019-06-15T13:25:20.476Z,89.20
2019-06-15T13:27:49.040Z,89.40
2019-06-15T13:30:22.062Z,89.40
2019-06-15T13:32:50.701Z,90.10
2019-06-15T13:35:19.229Z,91.10
2019-06-15T13:37:47.903Z,90.20
2019-06-15T13:40:16.627Z,90.30
2019-06-15T13:42:45.226Z,90.30
2019-06-15T13:45:15.234Z,90.20
2019-06-15T13:47:44.220Z,90.10
2019-06-15T13:50:12.888Z,91.80
2019-06-15T13:52:41.487Z,92.40
2019-06-15T13:55:10.791Z,90.80
2019-06-15T13:57:39.388Z,91.20
2019-06-15T14:00:08.483Z,90.40
2019-06-15T14:02:37.182Z,90.80
2019-06-15T14:05:06.631Z,88.00
2019-06-15T14:07:35.392Z,88.40
2019-06-15T14:10:09.620Z,89.10
2019-06-15T14:12:38.781Z,88.40
2019-06-15T14:15:08.420Z,89.60
2019-06-15T14:17:39.927Z,90.30
2019-06-15T14:20:09.721Z,90.80
2019-06-15T14:22:38.261Z,90.10
2019-06-15T14:25:08.396Z,88.30
2019-06-15T14:27:36.942Z,90.00
2019-06-15T14:30:09.423Z,90.30
2019-06-15T14:32:37.923Z,90.30
2019-06-15T14:35:07.723Z,90.60
2019-06-15T14:37:36.881Z,90.80
2019-06-15T14:40:08.668Z,90.90
2019-06-15T14:42:38.388Z,91.40
2019-06-15T14:45:08.648Z,91.60
2019-06-15T14:47:37.278Z,91.20
2019-06-15T14:50:07.439Z,91.00
2019-06-15T14:52:35.992Z,90.70
2019-06-15T14:55:07.240Z,90.70
2019-06-15T14:57:36.119Z,91.60
2019-06-15T15:00:08.852Z,91.00
2019-06-15T15:02:37.268Z,90.90
2019-06-15T15:05:08.954Z,91.10
2019-06-15T15:07:37.562Z,90.70
2019-06-15T15:10:08.262Z,91.10
2019-06-15T15:12:37.150Z,90.70
2019-06-15T15:15:08.712Z,91.30
2019-06-15T15:17:37.423Z,91.10
2019-06-15T15:20:07.283Z,90.40
2019-06-15T15:22:37.106Z,90.70
2019-06-15T15:25:06.859Z,90.50
2019-06-15T15:27:37.442Z,90.50
2019-06-15T15:30:07.780Z,91.60
2019-06-15T15:32:36.989Z,90.90
2019-06-15T15:35:06.857Z,90.70
2019-06-15T15:37:37.189Z,90.70
2019-06-15T15:40:07.405Z,91.00
2019-06-15T15:42:37.102Z,91.20
2019-06-15T15:45:07.470Z,91.50
2019-06-15T15:47:37.058Z,91.30
2019-06-15T15:50:08.967Z,91.20
2019-06-15T15:52:37.809Z,91.30
2019-06-15T15:55:10.270Z,91.80
2019-06-15T15:57:38.800Z,91.70
2019-06-15T16:00:08.796Z,91.30
2019-06-15T16:02:47.722Z,91.10
2019-06-15T16:05:07.914Z,91.10
2019-06-15T16:07:36.575Z,91.40
2019-06-15T16:10:06.360Z,91.70
2019-06-15T16:12:36.233Z,91.80
2019-06-15T16:15:07.638Z,91.80
2019-06-15T16:17:37.292Z,92.10
2019-06-15T16:20:09.053Z,91.00
2019-06-15T16:22:38.403Z,89.50
2019-06-15T16:25:07.916Z,87.80
2019-06-15T16:27:37.115Z,86.80
2019-06-15T16:30:10.819Z,86.40
2019-06-15T16:32:39.560Z,82.80
2019-06-15T16:35:08.829Z,82.80
2019-06-15T16:37:37.458Z,80.50
2019-06-15T16:40:08.508Z,80.50
2019-06-15T16:42:37.228Z,80.50
2019-06-15T16:45:06.820Z,80.60
2019-06-15T16:47:36.418Z,82.30
2019-06-15T16:50:08.904Z,83.20
2019-06-15T16:52:38.813Z,85.30
2019-06-15T16:55:11.005Z,83.60
2019-06-15T16:57:38.733Z,83.50
2019-06-15T17:00:13.407Z,82.60
2019-06-15T17:02:42.225Z,81.10
2019-06-15T17:05:10.999Z,82.30
2019-06-15T17:07:39.838Z,79.50
2019-06-15T17:10:08.807Z,83.70
2019-06-15T17:12:37.576Z,85.10
2019-06-15T17:15:08.308Z,85.50
2019-06-15T17:17:37.028Z,85.80
2019-06-15T17:20:09.415Z,85.50
2019-06-15T17:22:38.024Z,87.20
2019-06-15T17:25:09.861Z,87.90
2019-06-15T17:27:38.406Z,88.30
2019-06-15T17:30:07.499Z,88.70
2019-06-15T17:32:37.000Z,88.60
2019-06-15T17:35:06.858Z,89.70
2019-06-15T17:37:36.358Z,90.40
2019-06-15T17:40:07.185Z,91.10
2019-06-15T17:42:36.905Z,91.90
2019-06-15T17:45:06.795Z,92.10
2019-06-15T17:47:35.580Z,91.70
2019-06-15T17:50:07.450Z,92.20
2019-06-15T17:52:36.065Z,92.50
2019-06-15T17:55:07.310Z,92.90
2019-06-15T17:57:36.084Z,94.50
2019-06-15T18:00:07.057Z,94.20
2019-06-15T18:02:38.114Z,94.50
2019-06-15T18:05:07.749Z,95.60
2019-06-15T18:07:36.357Z,95.20
2019-06-15T18:10:07.417Z,94.80
2019-06-15T18:12:36.132Z,94.70
2019-06-15T18:15:08.737Z,95.00
2019-06-15T18:17:37.335Z,95.20
2019-06-15T18:20:06.832Z,95.50
2019-06-15T18:22:36.236Z,95.20
2019-06-15T18:25:06.717Z,95.60
2019-06-15T18:27:37.287Z,96.20
2019-06-15T18:30:07.213Z,96.70
2019-06-15T18:32:37.902Z,96.40
2019-06-15T18:35:06.872Z,96.60
2019-06-15T18:37:37.138Z,97.90
2019-06-15T18:40:07.388Z,98.50
2019-06-15T18:42:36.920Z,99.00
2019-06-15T18:45:09.704Z,99.40
2019-06-15T18:47:38.388Z,99.50
2019-06-15T18:50:10.336Z,99.00
2019-06-15T18:52:38.875Z,99.60
2019-06-15T18:55:08.374Z,99.90
2019-06-15T18:57:37.343Z,99.90
2019-06-15T19:00:07.633Z,99.90
2019-06-15T19:02:36.639Z,99.90
2019-06-15T19:05:07.559Z,99.90
2019-06-15T19:07:37.694Z,99.90
2019-06-15T19:10:07.276Z,99.90
2019-06-15T19:12:36.096Z,99.90
2019-06-15T19:15:07.363Z,99.90
2019-06-15T19:17:37.070Z,99.90
2019-06-15T19:20:06.447Z,99.90
2019-06-15T19:22:35.151Z,99.90
2019-06-15T19:25:04.678Z,99.90
2019-06-15T19:27:33.203Z,99.90
2019-06-15T19:30:01.850Z,99.90
2019-06-15T19:32:30.394Z,99.90
2019-06-15T19:34:58.959Z,99.90
2019-06-15T19:37:27.499Z,99.90
2019-06-15T19:39:56.533Z,99.90
2019-06-15T19:42:25.982Z,99.90
2019-06-15T19:44:56.233Z,99.90
2019-06-15T19:47:26.553Z,99.90
2019-06-15T19:49:56.842Z,99.90
2019-06-15T19:52:25.567Z,99.90
2019-06-15T19:54:54.113Z,99.90
2019-06-15T19:57:22.657Z,99.90
2019-06-15T19:59:51.210Z,99.90
2019-06-15T20:02:19.767Z,99.90
2019-06-15T20:04:59.069Z,99.90
2019-06-15T20:07:18.632Z,99.90
2019-06-15T20:09:47.260Z,99.90
2019-06-15T20:12:21.541Z,99.90
2019-06-15T20:14:46.424Z,99.90
2019-06-15T20:17:17.381Z,99.90
2019-06-15T20:19:46.458Z,99.90
2019-06-15T20:22:18.264Z,99.90
2019-06-15T20:24:47.464Z,99.90
2019-06-15T20:27:16.422Z,99.90
2019-06-15T20:29:47.553Z,99.90
2019-06-15T20:32:17.416Z,99.90
2019-06-15T20:34:46.377Z,99.90
2019-06-15T20:37:16.839Z,99.90
2019-06-15T20:39:46.727Z,99.90
2019-06-15T20:42:16.416Z,99.90
2019-06-15T20:44:46.217Z,99.90
2019-06-15T20:47:14.932Z,99.90
2019-06-15T20:49:43.490Z,99.90
2019-06-15T20:52:12.125Z,99.90
2019-06-15T20:54:40.651Z,99.90
2019-06-15T20:57:09.144Z,99.90
2019-06-15T20:59:37.684Z,99.90
2019-06-15T21:02:07.111Z,99.90
2019-06-15T21:04:36.543Z,99.90
2019-06-15T21:07:06.696Z,99.90
2019-06-15T21:09:36.367Z,99.90
2019-06-15T21:12:06.598Z,99.90
2019-06-15T21:14:36.570Z,99.90
2019-06-15T21:17:06.793Z,99.90
2019-06-15T21:19:36.435Z,99.90
2019-06-15T21:22:06.291Z,99.90
2019-06-15T21:24:37.309Z,99.90
2019-06-15T21:27:06.381Z,99.90
2019-06-15T21:29:37.002Z,99.90
2019-06-15T21:32:05.426Z,99.90
2019-06-15T21:34:36.064Z,99.90
2019-06-15T21:37:06.418Z,99.90
2019-06-15T21:39:36.458Z,99.90
2019-06-15T21:42:04.888Z,99.90
2019-06-15T21:44:35.944Z,99.90
2019-06-15T21:47:03.686Z,99.90
2019-06-15T21:49:32.290Z,99.90
2019-06-15T21:52:00.870Z,99.90
2019-06-15T21:54:29.396Z,99.90
2019-06-15T21:56:58.022Z,99.90
2019-06-15T21:59:26.559Z,99.90
2019-06-15T22:01:55.182Z,99.90
2019-06-15T22:04:25.801Z,99.90
2019-06-15T22:06:56.273Z,99.90
2019-06-15T22:09:26.376Z,99.90
2019-06-15T22:11:56.170Z,99.90
2019-06-15T22:14:26.612Z,99.90
2019-06-15T22:16:56.910Z,99.90
2019-06-15T22:19:26.170Z,99.90
2019-06-15T22:21:54.901Z,99.90
2019-06-15T22:24:23.523Z,99.90
2019-06-15T22:26:52.055Z,99.90
2019-06-15T22:29:20.680Z,99.90
2019-06-15T22:31:49.242Z,99.90
2019-06-15T22:34:17.847Z,99.90
2019-06-15T22:36:47.956Z,99.90
2019-06-15T22:39:17.163Z,99.90
2019-06-15T22:41:46.947Z,99.90
2019-06-15T22:44:16.922Z,99.90
2019-06-15T22:46:46.508Z,99.90
2019-06-15T22:49:16.126Z,99.90
2019-06-15T22:51:45.894Z,99.90
2019-06-15T22:54:16.557Z,99.90
2019-06-15T22:56:46.613Z,99.90
2019-06-15T22:59:16.874Z,99.90
2019-06-15T23:01:46.101Z,99.90
2019-06-15T23:04:17.066Z,99.90
2019-06-15T23:06:45.829Z,99.90
2019-06-15T23:09:16.716Z,99.90
2019-06-15T23:11:46.779Z,99.90
2019-06-15T23:14:17.178Z,99.90
2019-06-15T23:16:47.441Z,99.90
2019-06-15T23:19:17.228Z,99.90
2019-06-15T23:21:46.384Z,99.90
2019-06-15T23:24:16.599Z,99.90
2019-06-15T23:26:46.164Z,99.90
2019-06-15T23:29:16.459Z,99.90
2019-06-15T23:31:46.086Z,99.90
2019-06-15T23:34:16.264Z,99.90
2019-06-15T23:36:54.334Z,99.90
2019-06-15T23:39:17.212Z,99.90
2019-06-15T23:41:46.921Z,99.90
2019-06-15T23:44:16.146Z,99.90
2019-06-15T23:46:46.918Z,99.90
2019-06-15T23:49:16.382Z,99.90
2019-06-15T23:51:46.693Z,99.90
2019-06-15T23:54:15.416Z,99.90
2019-06-15T23:56:46.069Z,99.90
2019-06-15T23:59:14.293Z,99.90
